sensor_id;sensor_type;location;lat;lon;timestamp;pressure;altitude;pressure_sealevel;temperature;humidity
33454;BME280;39400;49.744;7.012;2023-03-19T00:01:51;95593.97;;;10.15;99.93
33454;BME280;39400;49.744;7.012;2023-03-19T00:04:16;95592.41;;;10.07;100.00
33454;BME280;39400;49.744;7.012;2023-03-19T00:06:42;95593.22;;;10.04;100.00
33454;BME280;39400;49.744;7.012;2023-03-19T00:09:07;95597.94;;;9.99;100.00
33454;BME280;39400;49.744;7.012;2023-03-19T00:11:33;95589.34;;;9.90;100.00
33454;BME280;39400;49.744;7.012;2023-03-19T00:13:58;95592.50;;;9.85;100.00
33454;BME280;39400;49.744;7.012;2023-03-19T00:16:24;95603.47;;;9.92;100.00
33454;BME280;39400;49.744;7.012;2023-03-19T00:18:49;95592.91;;;9.87;100.00
33454;BME280;39400;49.744;7.012;2023-03-19T00:21:14;95601.16;;;9.76;100.00
33454;BME280;39400;49.744;7.012;2023-03-19T00:23:40;95601.16;;;9.73;100.00
33454;BME280;39400;49.744;7.012;2023-03-19T00:26:05;95604.28;;;9.79;100.00
33454;BME280;39400;49.744;7.012;2023-03-19T00:28:31;95603.56;;;9.64;100.00
33454;BME280;39400;49.744;7.012;2023-03-19T00:30:56;95600.81;;;9.60;100.00
33454;BME280;39400;49.744;7.012;2023-03-19T00:33:21;95599.63;;;9.65;100.00
33454;BME280;39400;49.744;7.012;2023-03-19T00:35:47;95601.97;;;9.63;100.00
33454;BME280;39400;49.744;7.012;2023-03-19T00:38:12;95597.66;;;9.62;100.00
33454;BME280;39400;49.744;7.012;2023-03-19T00:40:38;95600.38;;;9.69;100.00
33454;BME280;39400;49.744;7.012;2023-03-19T00:43:03;95594.53;;;9.63;100.00
33454;BME280;39400;49.744;7.012;2023-03-19T00:45:28;95607.50;;;9.48;100.00
33454;BME280;39400;49.744;7.012;2023-03-19T00:47:54;95600.44;;;9.47;100.00
33454;BME280;39400;49.744;7.012;2023-03-19T00:50:19;95606.72;;;9.41;100.00
33454;BME280;39400;49.744;7.012;2023-03-19T00:52:44;95600.47;;;9.29;100.00
33454;BME280;39400;49.744;7.012;2023-03-19T00:55:10;95602.03;;;9.27;100.00
33454;BME280;39400;49.744;7.012;2023-03-19T00:57:35;95602.81;;;9.17;100.00
33454;BME280;39400;49.744;7.012;2023-03-19T01:00:00;95601.66;;;9.21;100.00
33454;BME280;39400;49.744;7.012;2023-03-19T01:02:26;95597.34;;;9.13;100.00
33454;BME280;39400;49.744;7.012;2023-03-19T01:04:52;95595.78;;;8.98;100.00
33454;BME280;39400;49.744;7.012;2023-03-19T01:07:18;95604.81;;;8.91;100.00
33454;BME280;39400;49.744;7.012;2023-03-19T01:09:43;95601.66;;;8.89;100.00
33454;BME280;39400;49.744;7.012;2023-03-19T01:12:08;95600.09;;;8.74;100.00
33454;BME280;39400;49.744;7.012;2023-03-19T01:14:34;95603.97;;;8.66;100.00
33454;BME280;39400;49.744;7.012;2023-03-19T01:16:59;95597.72;;;8.62;100.00
33454;BME280;39400;49.744;7.012;2023-03-19T01:19:26;95603.94;;;8.48;100.00
33454;BME280;39400;49.744;7.012;2023-03-19T01:21:51;95603.53;;;8.35;100.00
33454;BME280;39400;49.744;7.012;2023-03-19T01:24:19;95601.16;;;8.33;100.00
33454;BME280;39400;49.744;7.012;2023-03-19T01:26:50;95602.69;;;8.27;100.00
33454;BME280;39400;49.744;7.012;2023-03-19T01:29:28;95606.63;;;8.30;100.00
33454;BME280;39400;49.744;7.012;2023-03-19T01:31:57;95605.06;;;8.29;100.00
33454;BME280;39400;49.744;7.012;2023-03-19T01:34:22;95601.16;;;8.33;100.00
33454;BME280;39400;49.744;7.012;2023-03-19T01:36:54;95607.41;;;8.30;100.00
33454;BME280;39400;49.744;7.012;2023-03-19T01:39:30;95610.50;;;8.18;100.00
33454;BME280;39400;49.744;7.012;2023-03-19T01:42:00;95614.00;;;8.12;100.00
33454;BME280;39400;49.744;7.012;2023-03-19T01:44:44;95610.88;;;8.13;100.00
33454;BME280;39400;49.744;7.012;2023-03-19T01:47:38;95615.13;;;8.03;100.00
33454;BME280;39400;49.744;7.012;2023-03-19T01:50:24;95620.19;;;7.94;100.00
33454;BME280;39400;49.744;7.012;2023-03-19T01:53:10;95618.25;;;7.98;100.00
33454;BME280;39400;49.744;7.012;2023-03-19T01:55:47;95616.75;;;8.12;100.00
33454;BME280;39400;49.744;7.012;2023-03-19T01:58:25;95612.78;;;7.98;100.00
33454;BME280;39400;49.744;7.012;2023-03-19T02:01:05;95624.03;;;7.86;100.00
33454;BME280;39400;49.744;7.012;2023-03-19T02:03:32;95637.72;;;7.86;100.00
33454;BME280;39400;49.744;7.012;2023-03-19T02:06:22;95625.16;;;7.71;100.00
33454;BME280;39400;49.744;7.012;2023-03-19T02:08:48;95623.94;;;7.65;100.00
33454;BME280;39400;49.744;7.012;2023-03-19T02:11:15;95622.34;;;7.56;100.00
33454;BME280;39400;49.744;7.012;2023-03-19T02:13:40;95623.59;;;7.70;100.00
33454;BME280;39400;49.744;7.012;2023-03-19T02:16:06;95618.13;;;7.73;100.00
33454;BME280;39400;49.744;7.012;2023-03-19T02:18:31;95618.19;;;7.84;100.00
33454;BME280;39400;49.744;7.012;2023-03-19T02:23:44;95617.38;;;7.80;100.00
33454;BME280;39400;49.744;7.012;2023-03-19T02:26:19;95611.94;;;7.87;100.00
33454;BME280;39400;49.744;7.012;2023-03-19T02:28:49;95615.84;;;7.86;100.00
33454;BME280;39400;49.744;7.012;2023-03-19T02:31:21;95615.06;;;7.89;100.00
33454;BME280;39400;49.744;7.012;2023-03-19T02:36:48;95617.44;;;7.91;100.00
33454;BME280;39400;49.744;7.012;2023-03-19T02:39:22;95614.34;;;7.99;100.00
33454;BME280;39400;49.744;7.012;2023-03-19T02:41:51;95609.28;;;8.01;100.00
33454;BME280;39400;49.744;7.012;2023-03-19T02:44:18;95612.00;;;8.01;100.00
33454;BME280;39400;49.744;7.012;2023-03-19T02:46:44;95608.06;;;7.92;100.00
33454;BME280;39400;49.744;7.012;2023-03-19T02:49:09;95615.44;;;7.84;100.00
33454;BME280;39400;49.744;7.012;2023-03-19T02:51:35;95620.50;;;7.82;100.00
33454;BME280;39400;49.744;7.012;2023-03-19T02:54:01;95609.56;;;7.82;100.00
33454;BME280;39400;49.744;7.012;2023-03-19T02:56:26;95611.88;;;7.73;100.00
33454;BME280;39400;49.744;7.012;2023-03-19T02:58:51;95615.75;;;7.72;100.00
33454;BME280;39400;49.744;7.012;2023-03-19T03:01:17;95613.09;;;7.86;100.00
33454;BME280;39400;49.744;7.012;2023-03-19T03:03:42;95615.84;;;7.86;100.00
33454;BME280;39400;49.744;7.012;2023-03-19T03:06:08;95610.31;;;7.79;100.00
33454;BME280;39400;49.744;7.012;2023-03-19T03:08:33;95610.72;;;7.77;100.00
33454;BME280;39400;49.744;7.012;2023-03-19T03:10:58;95604.06;;;7.75;100.00
33454;BME280;39400;49.744;7.012;2023-03-19T03:13:24;95606.03;;;7.78;100.00
33454;BME280;39400;49.744;7.012;2023-03-19T03:15:49;95606.38;;;7.66;100.00
33454;BME280;39400;49.744;7.012;2023-03-19T03:18:15;95602.44;;;7.63;100.00
33454;BME280;39400;49.744;7.012;2023-03-19T03:20:41;95606.34;;;7.62;100.00
33454;BME280;39400;49.744;7.012;2023-03-19T03:23:07;95607.47;;;7.57;100.00
33454;BME280;39400;49.744;7.012;2023-03-19T03:25:33;95613.38;;;7.59;100.00
33454;BME280;39400;49.744;7.012;2023-03-19T03:27:59;95604.75;;;7.57;100.00
33454;BME280;39400;49.744;7.012;2023-03-19T03:30:24;95610.97;;;7.54;100.00
33454;BME280;39400;49.744;7.012;2023-03-19T03:32:49;95614.19;;;7.67;100.00
33454;BME280;39400;49.744;7.012;2023-03-19T03:35:15;95610.25;;;7.65;100.00
33454;BME280;39400;49.744;7.012;2023-03-19T03:37:40;95613.00;;;7.65;100.00
33454;BME280;39400;49.744;7.012;2023-03-19T03:40:08;95617.31;;;7.62;100.00
33454;BME280;39400;49.744;7.012;2023-03-19T03:42:35;95622.00;;;7.69;100.00
33454;BME280;39400;49.744;7.012;2023-03-19T03:45:01;95625.13;;;7.63;100.00
33454;BME280;39400;49.744;7.012;2023-03-19T03:47:26;95626.66;;;7.61;100.00
33454;BME280;39400;49.744;7.012;2023-03-19T03:49:51;95632.16;;;7.65;100.00
33454;BME280;39400;49.744;7.012;2023-03-19T03:52:17;95631.75;;;7.62;100.00
33454;BME280;39400;49.744;7.012;2023-03-19T03:54:42;95643.75;;;7.47;100.00
33454;BME280;39400;49.744;7.012;2023-03-19T03:57:08;95644.53;;;7.44;100.00
33454;BME280;39400;49.744;7.012;2023-03-19T03:59:33;95647.59;;;7.32;100.00
33454;BME280;39400;49.744;7.012;2023-03-19T04:01:59;95651.41;;;7.24;100.00
33454;BME280;39400;49.744;7.012;2023-03-19T04:04:24;95662.22;;;7.06;100.00
33454;BME280;39400;49.744;7.012;2023-03-19T04:06:49;95664.47;;;6.93;100.00
33454;BME280;39400;49.744;7.012;2023-03-19T04:09:25;95658.13;;;6.85;100.00
33454;BME280;39400;49.744;7.012;2023-03-19T04:11:50;95659.94;;;6.71;100.00
33454;BME280;39400;49.744;7.012;2023-03-19T04:14:16;95653.25;;;6.64;100.00
33454;BME280;39400;49.744;7.012;2023-03-19T04:16:43;95652.03;;;6.58;100.00
33454;BME280;39400;49.744;7.012;2023-03-19T04:19:08;95650.13;;;6.62;100.00
33454;BME280;39400;49.744;7.012;2023-03-19T04:21:34;95653.25;;;6.64;100.00
33454;BME280;39400;49.744;7.012;2023-03-19T04:23:59;95661.22;;;6.80;100.00
33454;BME280;39400;49.744;7.012;2023-03-19T04:26:25;95663.69;;;6.96;100.00
33454;BME280;39400;49.744;7.012;2023-03-19T04:28:50;95661.38;;;6.98;100.00
33454;BME280;39400;49.744;7.012;2023-03-19T04:31:16;95655.94;;;7.02;100.00
33454;BME280;39400;49.744;7.012;2023-03-19T04:33:43;95650.59;;;7.20;100.00
33454;BME280;39400;49.744;7.012;2023-03-19T04:36:08;95651.88;;;7.33;100.00
33454;BME280;39400;49.744;7.012;2023-03-19T04:38:35;95653.91;;;7.43;100.00
33454;BME280;39400;49.744;7.012;2023-03-19T04:41:00;95660.97;;;7.48;100.00
33454;BME280;39400;49.744;7.012;2023-03-19T04:43:26;95650.84;;;7.48;100.00
33454;BME280;39400;49.744;7.012;2023-03-19T04:45:52;95650.88;;;7.55;100.00
33454;BME280;39400;49.744;7.012;2023-03-19T04:48:19;95643.84;;;7.58;100.00
33454;BME280;39400;49.744;7.012;2023-03-19T04:50:45;95653.25;;;7.60;100.00
33454;BME280;39400;49.744;7.012;2023-03-19T04:53:10;95657.19;;;7.67;100.00
33454;BME280;39400;49.744;7.012;2023-03-19T04:55:36;95657.19;;;7.67;100.00
33454;BME280;39400;49.744;7.012;2023-03-19T04:58:06;95663.00;;;7.61;100.00
33454;BME280;39400;49.744;7.012;2023-03-19T05:00:34;95667.34;;;7.62;100.00
33454;BME280;39400;49.744;7.012;2023-03-19T05:03:00;95666.16;;;7.63;100.00
33454;BME280;39400;49.744;7.012;2023-03-19T05:05:27;95663.00;;;7.61;100.00
33454;BME280;39400;49.744;7.012;2023-03-19T05:07:53;95664.63;;;7.70;100.00
33454;BME280;39400;49.744;7.012;2023-03-19T05:10:18;95664.22;;;7.68;100.00
33454;BME280;39400;49.744;7.012;2023-03-19T05:12:44;95670.84;;;7.63;100.00
33454;BME280;39400;49.744;7.012;2023-03-19T05:15:10;95668.47;;;7.61;100.00
33454;BME280;39400;49.744;7.012;2023-03-19T05:17:40;95672.75;;;7.55;100.00
33454;BME280;39400;49.744;7.012;2023-03-19T05:20:20;95667.25;;;7.48;100.00
33454;BME280;39400;49.744;7.012;2023-03-19T05:22:58;95668.78;;;7.46;100.00
33454;BME280;39400;49.744;7.012;2023-03-19T05:25:35;95668.81;;;7.49;100.00
33454;BME280;39400;49.744;7.012;2023-03-19T05:28:03;95675.38;;;7.41;100.00
33454;BME280;39400;49.744;7.012;2023-03-19T05:30:29;95676.63;;;7.54;100.00
33454;BME280;39400;49.744;7.012;2023-03-19T05:33:02;95671.94;;;7.55;100.00
33454;BME280;39400;49.744;7.012;2023-03-19T05:35:33;95671.13;;;7.47;100.00
33454;BME280;39400;49.744;7.012;2023-03-19T05:38:00;95673.94;;;7.61;100.00
33454;BME280;39400;49.744;7.012;2023-03-19T05:40:26;95679.03;;;7.59;100.00
33454;BME280;39400;49.744;7.012;2023-03-19T05:42:52;95674.78;;;7.66;100.00
33454;BME280;39400;49.744;7.012;2023-03-19T05:45:21;95674.44;;;7.74;100.00
33454;BME280;39400;49.744;7.012;2023-03-19T05:47:50;95679.94;;;7.78;100.00
33454;BME280;39400;49.744;7.012;2023-03-19T05:50:17;95677.59;;;7.80;100.00
33454;BME280;39400;49.744;7.012;2023-03-19T05:53:01;95677.59;;;7.80;100.00
33454;BME280;39400;49.744;7.012;2023-03-19T05:55:27;95680.72;;;7.78;100.00
33454;BME280;39400;49.744;7.012;2023-03-19T05:58:01;95677.22;;;7.81;100.00
33454;BME280;39400;49.744;7.012;2023-03-19T06:00:28;95684.66;;;7.84;100.00
33454;BME280;39400;49.744;7.012;2023-03-19T06:02:53;95686.66;;;7.91;100.00
33454;BME280;39400;49.744;7.012;2023-03-19T06:05:24;95687.81;;;7.86;100.00
33454;BME280;39400;49.744;7.012;2023-03-19T06:07:53;95690.16;;;7.88;100.00
33454;BME280;39400;49.744;7.012;2023-03-19T06:10:34;95694.03;;;7.80;100.00
33454;BME280;39400;49.744;7.012;2023-03-19T06:13:01;95698.66;;;7.76;100.00
33454;BME280;39400;49.744;7.012;2023-03-19T06:15:39;95696.34;;;7.78;100.00
33454;BME280;39400;49.744;7.012;2023-03-19T06:18:15;95701.50;;;7.86;100.00
33454;BME280;39400;49.744;7.012;2023-03-19T06:20:40;95698.75;;;7.83;100.00
33454;BME280;39400;49.744;7.012;2023-03-19T06:23:06;95703.38;;;7.79;100.00
33454;BME280;39400;49.744;7.012;2023-03-19T06:25:32;95697.09;;;7.71;100.00
33454;BME280;39400;49.744;7.012;2023-03-19T06:27:57;95690.81;;;7.71;100.00
33454;BME280;39400;49.744;7.012;2023-03-19T06:30:34;95688.09;;;7.71;100.00
33454;BME280;39400;49.744;7.012;2023-03-19T06:33:03;95690.38;;;7.61;100.00
33454;BME280;39400;49.744;7.012;2023-03-19T06:35:30;95686.91;;;7.72;100.00
33454;BME280;39400;49.744;7.012;2023-03-19T06:37:55;95683.06;;;7.80;100.00
33454;BME280;39400;49.744;7.012;2023-03-19T06:40:21;95678.44;;;7.91;100.00
33454;BME280;39400;49.744;7.012;2023-03-19T06:42:46;95684.75;;;8.02;100.00
33454;BME280;39400;49.744;7.012;2023-03-19T06:45:14;95697.28;;;8.07;100.00
33454;BME280;39400;49.744;7.012;2023-03-19T06:47:43;95691.84;;;8.10;100.00
33454;BME280;39400;49.744;7.012;2023-03-19T06:50:10;95691.78;;;8.03;100.00
33454;BME280;39400;49.744;7.012;2023-03-19T06:52:36;95703.63;;;8.22;100.00
33454;BME280;39400;49.744;7.012;2023-03-19T06:55:01;95699.38;;;8.35;100.00
33454;BME280;39400;49.744;7.012;2023-03-19T06:57:26;95702.91;;;8.32;100.00
33454;BME280;39400;49.744;7.012;2023-03-19T06:59:52;95703.75;;;8.43;100.00
33454;BME280;39400;49.744;7.012;2023-03-19T07:02:18;95703.69;;;8.36;100.00
33454;BME280;39400;49.744;7.012;2023-03-19T07:04:43;95708.00;;;8.37;100.00
33454;BME280;39400;49.744;7.012;2023-03-19T07:07:08;95715.06;;;8.38;100.00
33454;BME280;39400;49.744;7.012;2023-03-19T07:09:34;95718.56;;;8.35;100.00
33454;BME280;39400;49.744;7.012;2023-03-19T07:11:59;95719.44;;;8.53;100.00
33454;BME280;39400;49.744;7.012;2023-03-19T07:14:25;95724.03;;;8.35;100.00
33454;BME280;39400;49.744;7.012;2023-03-19T07:16:50;95720.91;;;8.33;100.00
33454;BME280;39400;49.744;7.012;2023-03-19T07:19:16;95724.03;;;8.35;100.00
33454;BME280;39400;49.744;7.012;2023-03-19T07:21:41;95724.81;;;8.32;100.00
33454;BME280;39400;49.744;7.012;2023-03-19T07:24:07;95737.34;;;8.33;100.00
33454;BME280;39400;49.744;7.012;2023-03-19T07:26:32;95731.09;;;8.36;100.00
33454;BME280;39400;49.744;7.012;2023-03-19T07:28:58;95733.78;;;8.29;100.00
33454;BME280;39400;49.744;7.012;2023-03-19T07:31:23;95735.31;;;8.23;100.00
33454;BME280;39400;49.744;7.012;2023-03-19T07:33:49;95738.09;;;8.26;100.00
33454;BME280;39400;49.744;7.012;2023-03-19T07:36:14;95736.09;;;8.23;100.00
33454;BME280;39400;49.744;7.012;2023-03-19T07:38:39;95731.03;;;8.25;100.00
33454;BME280;39400;49.744;7.012;2023-03-19T07:41:05;95739.66;;;8.31;100.00
33454;BME280;39400;49.744;7.012;2023-03-19T07:43:30;95729.50;;;8.31;100.00
33454;BME280;39400;49.744;7.012;2023-03-19T07:45:56;95740.06;;;8.33;100.00
33454;BME280;39400;49.744;7.012;2023-03-19T07:48:22;95740.88;;;8.37;100.00
33454;BME280;39400;49.744;7.012;2023-03-19T07:50:50;95746.84;;;8.53;100.00
33454;BME280;39400;49.744;7.012;2023-03-19T07:53:15;95745.28;;;8.49;100.00
33454;BME280;39400;49.744;7.012;2023-03-19T07:55:41;95746.03;;;8.42;100.00
33454;BME280;39400;49.744;7.012;2023-03-19T07:58:06;95738.22;;;8.51;100.00
33454;BME280;39400;49.744;7.012;2023-03-19T08:00:32;95744.44;;;8.41;100.00
33454;BME280;39400;49.744;7.012;2023-03-19T08:02:57;95738.94;;;8.41;100.00
33454;BME280;39400;49.744;7.012;2023-03-19T08:05:23;95748.38;;;8.44;100.00
33454;BME280;39400;49.744;7.012;2023-03-19T08:07:48;95746.34;;;8.37;100.00
33454;BME280;39400;49.744;7.012;2023-03-19T08:10:13;95744.34;;;8.27;100.00
33454;BME280;39400;49.744;7.012;2023-03-19T08:12:39;95751.25;;;8.06;100.00
33454;BME280;39400;49.744;7.012;2023-03-19T08:15:05;95755.59;;;8.07;100.00
33454;BME280;39400;49.744;7.012;2023-03-19T08:17:31;95751.31;;;8.14;100.00
33454;BME280;39400;49.744;7.012;2023-03-19T08:19:56;95745.06;;;8.17;100.00
33454;BME280;39400;49.744;7.012;2023-03-19T08:22:22;95746.69;;;8.25;100.00
33454;BME280;39400;49.744;7.012;2023-03-19T08:24:47;95748.28;;;8.33;100.00
33454;BME280;39400;49.744;7.012;2023-03-19T08:27:12;95746.03;;;8.42;100.00
33454;BME280;39400;49.744;7.012;2023-03-19T08:29:38;95739.41;;;8.57;100.00
33454;BME280;39400;49.744;7.012;2023-03-19T08:32:03;95742.19;;;8.65;100.00
33454;BME280;39400;49.744;7.012;2023-03-19T08:34:29;95734.75;;;8.65;100.00
33454;BME280;39400;49.744;7.012;2023-03-19T08:36:54;95744.56;;;8.66;100.00
33454;BME280;39400;49.744;7.012;2023-03-19T08:39:19;95754.75;;;8.73;100.00
33454;BME280;39400;49.744;7.012;2023-03-19T08:41:45;95751.63;;;8.78;100.00
33454;BME280;39400;49.744;7.012;2023-03-19T08:44:10;95749.69;;;8.82;100.00
33454;BME280;39400;49.744;7.012;2023-03-19T08:46:36;95757.91;;;8.82;100.00
33454;BME280;39400;49.744;7.012;2023-03-19T08:49:01;95751.63;;;8.71;100.00
33454;BME280;39400;49.744;7.012;2023-03-19T08:51:27;95746.94;;;8.75;100.00
33454;BME280;39400;49.744;7.012;2023-03-19T08:53:52;95752.41;;;8.75;100.00
33454;BME280;39400;49.744;7.012;2023-03-19T08:56:18;95757.13;;;8.85;100.00
33454;BME280;39400;49.744;7.012;2023-03-19T08:58:43;95758.69;;;8.82;100.00
33454;BME280;39400;49.744;7.012;2023-03-19T09:01:11;95760.66;;;8.89;100.00
33454;BME280;39400;49.744;7.012;2023-03-19T09:03:37;95758.31;;;8.77;100.00
33454;BME280;39400;49.744;7.012;2023-03-19T09:06:05;95759.44;;;8.76;100.00
33454;BME280;39400;49.744;7.012;2023-03-19T09:08:32;95757.91;;;8.82;100.00
33454;BME280;39400;49.744;7.012;2023-03-19T09:10:57;95768.09;;;8.85;100.00
33454;BME280;39400;49.744;7.012;2023-03-19T09:13:23;95766.50;;;8.73;100.00
33454;BME280;39400;49.744;7.012;2023-03-19T09:15:49;95761.03;;;8.77;100.00
33454;BME280;39400;49.744;7.012;2023-03-19T09:18:14;95772.81;;;8.85;100.00
33454;BME280;39400;49.744;7.012;2023-03-19T09:20:40;95774.38;;;8.86;100.00
33454;BME280;39400;49.744;7.012;2023-03-19T09:23:06;95784.13;;;8.79;100.00
33454;BME280;39400;49.744;7.012;2023-03-19T09:25:32;95791.88;;;8.52;100.00
33454;BME280;39400;49.744;7.012;2023-03-19T09:27:57;95793.75;;;8.41;100.00
33454;BME280;39400;49.744;7.012;2023-03-19T09:30:23;95791.31;;;8.29;100.00
33454;BME280;39400;49.744;7.012;2023-03-19T09:32:48;95785.88;;;8.36;100.00
33454;BME280;39400;49.744;7.012;2023-03-19T09:35:13;95785.03;;;8.25;100.00
33454;BME280;39400;49.744;7.012;2023-03-19T09:37:39;95782.34;;;8.36;100.00
33454;BME280;39400;49.744;7.012;2023-03-19T09:40:05;95785.94;;;8.43;100.00
33454;BME280;39400;49.744;7.012;2023-03-19T09:45:17;95786.41;;;8.60;100.00
33454;BME280;39400;49.744;7.012;2023-03-19T09:47:45;95788.41;;;8.66;100.00
33454;BME280;39400;49.744;7.012;2023-03-19T09:50:19;95783.75;;;8.77;100.00
33454;BME280;39400;49.744;7.012;2023-03-19T09:52:48;95779.06;;;8.81;100.00
33454;BME280;39400;49.744;7.012;2023-03-19T09:57:43;95792.50;;;9.15;100.00
33454;BME280;39400;49.744;7.012;2023-03-19T10:00:33;95783.84;;;9.17;100.00
33454;BME280;39400;49.744;7.012;2023-03-19T10:08:23;95784.72;;;9.42;100.00
33454;BME280;39400;49.744;7.012;2023-03-19T10:15:49;95792.50;;;9.26;100.00
33454;BME280;39400;49.744;7.012;2023-03-19T10:18:21;95798.78;;;9.26;100.00
33454;BME280;39400;49.744;7.012;2023-03-19T10:23:32;95796.34;;;9.03;100.00
33454;BME280;39400;49.744;7.012;2023-03-19T10:26:02;95804.19;;;8.94;100.00
33454;BME280;39400;49.744;7.012;2023-03-19T10:28:29;95802.22;;;8.91;100.00
33454;BME280;39400;49.744;7.012;2023-03-19T10:33:35;95802.56;;;8.82;100.00
33454;BME280;39400;49.744;7.012;2023-03-19T10:36:08;95806.44;;;8.71;100.00
33454;BME280;39400;49.744;7.012;2023-03-19T10:38:39;95801.75;;;8.75;100.00
33454;BME280;39400;49.744;7.012;2023-03-19T10:41:18;95802.56;;;8.86;100.00
33454;BME280;39400;49.744;7.012;2023-03-19T10:43:51;95802.56;;;8.90;100.00
33454;BME280;39400;49.744;7.012;2023-03-19T10:46:17;95800.59;;;8.83;100.00
33454;BME280;39400;49.744;7.012;2023-03-19T10:48:44;95805.78;;;9.02;100.00
33454;BME280;39400;49.744;7.012;2023-03-19T10:51:13;95808.91;;;9.04;100.00
33454;BME280;39400;49.744;7.012;2023-03-19T10:53:40;95808.19;;;9.22;100.00
33454;BME280;39400;49.744;7.012;2023-03-19T10:56:16;95801.06;;;8.99;100.00
33454;BME280;39400;49.744;7.012;2023-03-19T10:58:56;95812.78;;;8.96;100.00
33454;BME280;39400;49.744;7.012;2023-03-19T11:01:26;95809.69;;;9.01;100.00
33454;BME280;39400;49.744;7.012;2023-03-19T11:03:57;95807.34;;;9.11;100.00
33454;BME280;39400;49.744;7.012;2023-03-19T11:06:31;95807.44;;;9.32;100.00
33454;BME280;39400;49.744;7.012;2023-03-19T11:08:59;95805.06;;;9.41;100.00
33454;BME280;39400;49.744;7.012;2023-03-19T11:11:34;95804.31;;;9.55;100.00
33454;BME280;39400;49.744;7.012;2023-03-19T11:14:07;95802.75;;;9.50;100.00
33454;BME280;39400;49.744;7.012;2023-03-19T11:16:49;95806.28;;;9.55;100.00
33454;BME280;39400;49.744;7.012;2023-03-19T11:19:22;95809.81;;;9.73;100.00
33454;BME280;39400;49.744;7.012;2023-03-19T11:22:15;95801.19;;;9.85;100.00
33454;BME280;39400;49.744;7.012;2023-03-19T11:24:47;95808.66;;;10.06;100.00
33454;BME280;39400;49.744;7.012;2023-03-19T11:27:13;95799.19;;;10.18;100.00
33454;BME280;39400;49.744;7.012;2023-03-19T11:29:41;95801.94;;;10.18;100.00
33454;BME280;39400;49.744;7.012;2023-03-19T11:34:50;95803.53;;;9.76;100.00
33454;BME280;39400;49.744;7.012;2023-03-19T11:43:05;95816.44;;;9.29;100.00
33454;BME280;39400;49.744;7.012;2023-03-19T11:48:43;95817.44;;;8.78;100.00
33454;BME280;39400;49.744;7.012;2023-03-19T11:51:18;95820.66;;;9.01;100.00
33454;BME280;39400;49.744;7.012;2023-03-19T11:54:56;95822.25;;;9.10;100.00
33454;BME280;39400;49.744;7.012;2023-03-19T11:57:00;95828.50;;;9.07;100.00
33454;BME280;39400;49.744;7.012;2023-03-19T12:02:56;95826.13;;;8.98;100.00
33454;BME280;39400;49.744;7.012;2023-03-19T12:05:30;95826.47;;;8.89;100.00
33454;BME280;39400;49.744;7.012;2023-03-19T12:13:39;95829.94;;;8.72;100.00
33454;BME280;39400;49.744;7.012;2023-03-19T12:16:39;95824.47;;;8.75;100.00
33454;BME280;39400;49.744;7.012;2023-03-19T12:36:16;95822.03;;;8.60;100.00
33454;BME280;39400;49.744;7.012;2023-03-19T12:38:46;95827.59;;;8.74;100.00
33454;BME280;39400;49.744;7.012;2023-03-19T12:41:16;95815.47;;;8.82;100.00
33454;BME280;39400;49.744;7.012;2023-03-19T12:46:15;95821.53;;;9.45;100.00
33454;BME280;39400;49.744;7.012;2023-03-19T12:48:52;95815.31;;;9.80;100.00
33454;BME280;39400;49.744;7.012;2023-03-19T12:51:24;95814.53;;;10.12;100.00
33454;BME280;39400;49.744;7.012;2023-03-19T12:54:05;95809.81;;;10.41;100.00
33454;BME280;39400;49.744;7.012;2023-03-19T12:57:03;95811.00;;;10.36;100.00
33454;BME280;39400;49.744;7.012;2023-03-19T13:10:23;95806.59;;;10.71;100.00
33454;BME280;39400;49.744;7.012;2023-03-19T13:12:51;95806.56;;;10.78;100.00
33454;BME280;39400;49.744;7.012;2023-03-19T13:20:53;95800.75;;;10.55;100.00
33454;BME280;39400;49.744;7.012;2023-03-19T13:23:29;95787.81;;;10.37;100.00
33454;BME280;39400;49.744;7.012;2023-03-19T13:25:57;95797.25;;;10.22;100.00
33454;BME280;39400;49.744;7.012;2023-03-19T13:28:31;95789.41;;;10.17;100.00
33454;BME280;39400;49.744;7.012;2023-03-19T13:31:26;95795.28;;;10.19;100.00
33454;BME280;39400;49.744;7.012;2023-03-19T13:36:45;95788.63;;;10.34;100.00
33454;BME280;39400;49.744;7.012;2023-03-19T13:39:17;95789.38;;;10.38;100.00
33454;BME280;39400;49.744;7.012;2023-03-19T13:41:49;95783.13;;;10.34;100.00
33454;BME280;39400;49.744;7.012;2023-03-19T13:46:47;95782.31;;;10.44;100.00
33454;BME280;39400;49.744;7.012;2023-03-19T13:49:30;95787.81;;;10.44;100.00
33454;BME280;39400;49.744;7.012;2023-03-19T13:54:44;95775.56;;;10.67;100.00
33454;BME280;39400;49.744;7.012;2023-03-19T13:59:45;95782.97;;;10.77;100.00
33454;BME280;39400;49.744;7.012;2023-03-19T14:04:59;95783.81;;;11.48;100.00
33454;BME280;39400;49.744;7.012;2023-03-19T14:07:27;95793.88;;;11.06;100.00
33454;BME280;39400;49.744;7.012;2023-03-19T14:12:30;95794.13;;;10.27;100.00
33454;BME280;39400;49.744;7.012;2023-03-19T14:17:36;95785.50;;;9.96;100.00
33454;BME280;39400;49.744;7.012;2023-03-19T14:25:20;95794.16;;;9.88;100.00
33454;BME280;39400;49.744;7.012;2023-03-19T14:27:47;95794.94;;;9.81;100.00
33454;BME280;39400;49.744;7.012;2023-03-19T14:30:38;95798.81;;;9.73;100.00
33454;BME280;39400;49.744;7.012;2023-03-19T14:33:24;95802.75;;;9.61;100.00
33454;BME280;39400;49.744;7.012;2023-03-19T14:35:51;95803.53;;;9.69;100.00
33454;BME280;39400;49.744;7.012;2023-03-19T14:38:27;95809.44;;;9.78;100.00
33454;BME280;39400;49.744;7.012;2023-03-19T14:40:55;95804.34;;;10.02;100.00
33454;BME280;39400;49.744;7.012;2023-03-19T14:45:59;95801.44;;;10.80;100.00
33454;BME280;39400;49.744;7.012;2023-03-19T14:54:18;95789.34;;;15.25;100.00
33454;BME280;39400;49.744;7.012;2023-03-19T14:56:46;95780.53;;;17.06;99.10
33454;BME280;39400;49.744;7.012;2023-03-19T14:59:12;95782.25;;;17.16;89.80
33454;BME280;39400;49.744;7.012;2023-03-19T15:01:43;95779.25;;;18.38;80.21
33454;BME280;39400;49.744;7.012;2023-03-19T15:04:13;95770.19;;;17.99;79.38